Time;durP1;ratioP1;P1;durP2;ratioP2;P2;SDS_P1;SDS_P2;PMS_P1;PMS_P2;Temp;Humidity;BMP_temperature;BMP_pressure;BME280_temperature;BME280_humidity;BME280_pressure;Samples;Min_cycle;Max_cycle;Signal;HPM_P1;HPM_P2
2022/08/03 00:01:52;;;;;;;8.68;6.22;;;28.00;99.90;;;;;;4117742;28;20094;-66
2022/08/03 00:03:57;;;;;;;11.20;6.20;;;28.00;99.90;;;;;;4124389;28;20042;-68
2022/08/03 00:06:04;;;;;;;8.38;5.60;;;28.10;99.90;;;;;;4123547;28;20056;-68
2022/08/03 00:08:09;;;;;;;7.38;4.80;;;28.10;99.90;;;;;;4155180;28;20053;-67
2022/08/03 00:10:14;;;;;;;5.68;3.50;;;28.20;99.90;;;;;;4121673;28;20381;-67
2022/08/03 00:12:21;;;;;;;5.30;3.60;;;28.20;99.90;;;;;;4103890;28;20058;-67
2022/08/03 00:14:27;;;;;;;7.65;3.20;;;28.30;99.90;;;;;;4123135;28;20088;-67
2022/08/03 00:16:32;;;;;;;6.82;2.80;;;28.30;99.90;;;;;;4122239;28;20046;-67
2022/08/03 00:18:38;;;;;;;3.88;2.85;;;28.40;99.90;;;;;;4124570;28;20437;-66
2022/08/03 00:20:45;;;;;;;6.10;2.90;;;28.50;99.90;;;;;;4123435;28;20053;-66
2022/08/03 00:22:50;;;;;;;5.75;3.33;;;28.60;99.90;;;;;;4124369;28;20145;-67
2022/08/03 00:24:56;;;;;;;6.40;3.30;;;28.60;99.90;;;;;;4123665;28;20054;-66
2022/08/03 00:27:03;;;;;;;6.28;3.45;;;28.70;99.90;;;;;;4122142;28;20145;-66
2022/08/03 00:29:10;;;;;;;5.63;3.33;;;28.80;99.90;;;;;;4124109;28;20057;-67
2022/08/03 00:31:16;;;;;;;4.18;2.72;;;28.90;99.90;;;;;;4123358;28;20054;-67
2022/08/03 00:33:43;;;;;;;5.20;2.83;;;28.90;99.90;;;;;;4126967;28;20157;-66
2022/08/03 00:36:05;;;;;;;4.60;2.60;;;29.10;99.90;;;;;;4126598;28;20045;-67
2022/08/03 00:38:12;;;;;;;3.72;2.30;;;29.20;99.90;;;;;;4132660;28;20050;-67
2022/08/03 00:40:19;;;;;;;4.60;2.15;;;29.40;99.90;;;;;;4141968;28;20106;-69
2022/08/03 00:42:23;;;;;;;3.78;2.10;;;29.40;99.90;;;;;;4135566;28;20030;-67
2022/08/03 00:44:31;;;;;;;3.47;2.20;;;29.50;99.90;;;;;;4125724;28;20047;-67
2022/08/03 00:46:37;;;;;;;4.43;2.30;;;29.60;99.90;;;;;;4124622;28;20149;-68
2022/08/03 00:48:42;;;;;;;3.65;2.17;;;29.60;99.90;;;;;;4126801;28;20077;-67
2022/08/03 00:50:48;;;;;;;3.67;2.25;;;29.60;99.90;;;;;;4130110;28;20042;-67
2022/08/03 00:52:58;;;;;;;3.53;2.13;;;29.60;99.90;;;;;;4141169;28;20100;-67
2022/08/03 00:55:03;;;;;;;4.50;2.25;;;29.60;99.90;;;;;;4138266;28;20109;-67
2022/08/03 00:57:10;;;;;;;5.22;2.13;;;29.60;99.90;;;;;;4124739;28;20419;-67
2022/08/03 00:59:15;;;;;;;4.03;2.15;;;29.60;99.90;;;;;;4126138;28;20042;-67
2022/08/03 01:01:20;;;;;;;3.83;2.22;;;29.50;99.90;;;;;;4125039;28;20046;-67
2022/08/03 01:03:25;;;;;;;6.00;2.15;;;29.50;99.90;;;;;;4126380;28;20047;-67
2022/08/03 01:05:34;;;;;;;5.05;2.03;;;29.40;99.90;;;;;;4124059;28;20061;-67
2022/08/03 01:07:57;;;;;;;7.85;1.95;;;29.40;99.90;;;;;;4130114;28;20441;-68
2022/08/03 01:10:12;;;;;;;3.45;2.20;;;29.40;99.90;;;;;;4140639;28;20165;-67
2022/08/03 01:12:32;;;;;;;3.45;1.80;;;29.40;99.90;;;;;;4113186;28;20059;-67
2022/08/03 01:14:57;;;;;;;6.28;2.17;;;29.40;99.90;;;;;;4107136;28;20055;-67
2022/08/03 01:17:34;;;;;;;4.50;2.22;;;29.40;99.90;;;;;;4091075;28;20051;-67
2022/08/03 01:20:09;;;;;;;5.82;2.03;;;29.50;99.90;;;;;;4107384;28;20110;-67
2022/08/03 01:22:48;;;;;;;4.05;1.60;;;29.70;99.90;;;;;;4119954;28;20050;-67
2022/08/03 01:25:09;;;;;;;2.47;1.60;;;29.70;99.90;;;;;;4123312;28;20418;-67
2022/08/03 01:27:28;;;;;;;2.67;1.80;;;29.70;99.90;;;;;;4124526;28;20046;-66
2022/08/03 01:29:52;;;;;;;2.58;1.77;;;29.60;99.90;;;;;;4122837;28;20730;-66
2022/08/03 01:32:15;;;;;;;4.22;1.65;;;29.60;99.90;;;;;;4123153;28;20130;-66
2022/08/03 01:34:54;;;;;;;6.43;1.75;;;29.60;99.90;;;;;;4125593;28;20511;-66
2022/08/03 01:37:03;;;;;;;2.17;1.40;;;29.60;99.90;;;;;;4125623;28;20104;-66
2022/08/03 01:39:08;;;;;;;2.97;1.60;;;29.80;99.90;;;;;;4124455;28;20184;-66
2022/08/03 01:41:16;;;;;;;3.72;2.50;;;29.90;99.90;;;;;;4124015;28;20042;-66
2022/08/03 01:43:29;;;;;;;5.72;2.53;;;29.90;99.90;;;;;;4131361;28;20046;-66
2022/08/03 01:45:54;;;;;;;4.25;2.60;;;29.90;99.90;;;;;;4125945;28;20485;-66
2022/08/03 01:47:59;;;;;;;3.60;2.00;;;29.90;99.90;;;;;;4124295;28;20116;-66
2022/08/03 01:50:05;;;;;;;3.28;2.50;;;29.90;99.90;;;;;;4120872;28;20094;-66
2022/08/03 01:52:10;;;;;;;3.78;2.10;;;29.90;99.90;;;;;;4127088;28;20077;-66
2022/08/03 01:54:14;;;;;;;4.03;2.70;;;29.90;99.90;;;;;;4127640;28;20113;-65
2022/08/03 01:56:23;;;;;;;4.07;2.50;;;30.00;99.90;;;;;;4127724;28;20050;-66
2022/08/03 01:58:28;;;;;;;5.32;2.53;;;30.10;99.90;;;;;;4125715;28;20089;-68
2022/08/03 02:00:35;;;;;;;4.45;2.70;;;30.20;99.90;;;;;;4125018;28;20947;-66
2022/08/03 02:02:42;;;;;;;4.38;2.95;;;30.20;99.90;;;;;;4125214;28;20089;-66
2022/08/03 02:04:47;;;;;;;6.70;3.00;;;30.20;99.90;;;;;;4125558;28;20559;-66
2022/08/03 02:06:55;;;;;;;6.25;3.35;;;30.10;99.90;;;;;;4127608;28;20046;-67
2022/08/03 02:09:06;;;;;;;4.40;3.10;;;30.20;99.90;;;;;;4125010;28;20046;-67
2022/08/03 02:11:12;;;;;;;4.38;2.92;;;30.30;99.90;;;;;;4125934;28;20050;-67
2022/08/03 02:13:16;;;;;;;3.92;2.72;;;30.40;99.90;;;;;;4128855;28;20085;-67
2022/08/03 02:15:23;;;;;;;4.55;3.00;;;30.40;99.90;;;;;;4127210;28;20046;-66
2022/08/03 02:17:28;;;;;;;3.45;2.50;;;30.50;99.90;;;;;;4101071;28;20061;-67
2022/08/03 02:19:42;;;;;;;4.18;2.97;;;30.50;99.90;;;;;;4120886;28;20042;-67
2022/08/03 02:21:51;;;;;;;4.40;2.60;;;30.60;99.90;;;;;;4124947;28;20037;-67
2022/08/03 02:24:04;;;;;;;3.80;2.45;;;30.60;99.90;;;;;;4125090;28;20050;-67
2022/08/03 02:26:11;;;;;;;3.90;2.70;;;30.60;99.90;;;;;;4125911;28;20069;-67
2022/08/03 02:28:19;;;;;;;2.90;2.55;;;30.60;99.90;;;;;;4109821;28;20051;-67
2022/08/03 02:30:32;;;;;;;2.42;2.03;;;30.70;99.90;;;;;;4124428;28;20062;-67
2022/08/03 02:32:39;;;;;;;2.78;2.25;;;30.70;99.90;;;;;;4126906;28;20737;-67
2022/08/03 02:34:49;;;;;;;4.55;2.30;;;30.80;99.90;;;;;;4084584;28;20134;-67
2022/08/03 02:36:54;;;;;;;3.80;2.38;;;30.70;99.90;;;;;;4125446;28;20046;-67
2022/08/03 02:39:00;;;;;;;5.80;2.70;;;30.60;99.90;;;;;;4126129;28;20149;-67
2022/08/03 02:41:13;;;;;;;8.32;3.75;;;30.60;99.90;;;;;;4107559;28;20047;-67
2022/08/03 02:43:19;;;;;;;10.18;3.97;;;30.50;99.90;;;;;;4127759;28;20077;-67
2022/08/03 02:45:24;;;;;;;10.02;3.53;;;30.60;99.90;;;;;;4124108;28;20046;-67
2022/08/03 02:47:32;;;;;;;12.48;4.68;;;30.60;99.90;;;;;;4125920;28;20042;-67
2022/08/03 02:49:58;;;;;;;16.05;4.38;;;30.50;99.90;;;;;;4125837;28;20444;-67
2022/08/03 02:52:03;;;;;;;14.07;4.75;;;30.50;99.90;;;;;;4126470;28;20093;-67
2022/08/03 02:54:17;;;;;;;8.43;3.85;;;30.50;99.90;;;;;;4091449;28;20086;-67
2022/08/03 02:56:23;;;;;;;11.88;4.53;;;30.60;99.90;;;;;;4126831;28;20050;-67
2022/08/03 02:58:27;;;;;;;7.95;3.38;;;30.80;99.90;;;;;;4125513;28;20054;-68
2022/08/03 03:00:36;;;;;;;6.30;2.88;;;30.90;99.90;;;;;;4099914;28;20051;-67
2022/08/03 03:02:41;;;;;;;7.10;3.05;;;31.10;99.90;;;;;;4126943;28;20528;-66
2022/08/03 03:04:47;;;;;;;4.28;2.60;;;31.20;99.90;;;;;;4124202;28;20108;-67
2022/08/03 03:07:15;;;;;;;6.65;2.97;;;31.30;99.90;;;;;;4126091;28;20048;-66
2022/08/03 03:09:19;;;;;;;6.07;2.40;;;31.40;99.90;;;;;;4126517;28;20166;-67
2022/08/03 03:11:24;;;;;;;5.93;2.35;;;31.60;99.90;;;;;;4123720;28;20056;-67
2022/08/03 03:13:33;;;;;;;4.63;2.13;;;31.50;99.90;;;;;;4082815;29;20078;-67
2022/08/03 03:15:38;;;;;;;6.47;2.35;;;31.40;99.90;;;;;;4125178;28;20053;-66
2022/08/03 03:17:42;;;;;;;4.72;2.28;;;31.50;99.90;;;;;;4125575;28;20081;-67
2022/08/03 03:19:51;;;;;;;4.65;2.58;;;31.70;99.90;;;;;;4148318;28;20049;-67
2022/08/03 03:21:56;;;;;;;2.97;2.20;;;31.60;99.90;;;;;;4125125;28;20134;-67
2022/08/03 03:24:00;;;;;;;70.60;14.43;;;31.70;99.90;;;;;;4126506;28;20565;-66
2022/08/03 03:26:07;;;;;;;32.42;9.32;;;31.70;99.90;;;;;;4123492;28;20050;-66
2022/08/03 03:28:12;;;;;;;13.00;4.95;;;31.80;99.90;;;;;;4127319;28;20050;-68
2022/08/03 03:30:17;;;;;;;4.93;2.25;;;32.00;99.90;;;;;;4125725;28;20097;-67
2022/08/03 03:32:27;;;;;;;4.22;2.33;;;32.10;99.90;;;;;;4104300;28;20552;-67
2022/08/03 03:34:32;;;;;;;5.25;2.20;;;32.10;99.90;;;;;;4123443;28;20112;-66
2022/08/03 03:36:38;;;;;;;4.43;2.83;;;32.10;99.90;;;;;;4124716;28;20101;-65
2022/08/03 03:38:44;;;;;;;3.08;1.92;;;32.00;99.90;;;;;;4126103;28;20074;-66
2022/08/03 03:40:48;;;;;;;3.65;2.00;;;31.90;99.90;;;;;;4124857;28;20134;-66
2022/08/03 03:42:53;;;;;;;2.75;1.92;;;31.80;99.90;;;;;;4126657;28;20042;-67
2022/08/03 03:45:05;;;;;;;3.55;1.60;;;31.80;99.90;;;;;;4125192;28;20054;-66
2022/08/03 03:47:10;;;;;;;4.25;1.92;;;31.80;99.90;;;;;;4125843;28;20080;-66
2022/08/03 03:49:15;;;;;;;4.25;2.08;;;32.00;99.90;;;;;;4124145;28;20053;-66
2022/08/03 03:51:22;;;;;;;2.85;1.70;;;32.10;99.90;;;;;;4125577;28;20082;-66
2022/08/03 03:53:28;;;;;;;3.13;1.90;;;32.30;99.90;;;;;;4127150;28;20054;-65
2022/08/03 03:55:33;;;;;;;2.70;1.45;;;32.50;99.90;;;;;;4125084;28;20133;-66
2022/08/03 03:58:02;;;;;;;3.15;1.60;;;32.60;99.90;;;;;;4106998;28;20051;-66
2022/08/03 04:00:08;;;;;;;4.65;1.80;;;32.40;99.90;;;;;;4104744;28;20047;-65
2022/08/03 04:02:12;;;;;;;2.88;1.77;;;32.30;99.90;;;;;;4107479;28;20050;-65
2022/08/03 04:11:20;;;;;;;13.50;3.33;;;32.00;99.90;;;;;;4107941;28;20065;-68
2022/08/03 04:13:46;;;;;;;8.65;2.63;;;32.00;99.80;;;;;;4109572;28;20053;-66
2022/08/03 04:15:51;;;;;;;5.10;2.17;;;32.20;99.90;;;;;;4107226;28;20051;-66
2022/08/03 04:17:59;;;;;;;3.45;1.80;;;32.40;99.90;;;;;;4105794;28;20749;-66
2022/08/03 04:20:04;;;;;;;3.00;1.73;;;32.60;99.50;;;;;;4124137;28;20056;-68
2022/08/03 04:22:13;;;;;;;3.75;1.55;;;32.80;99.40;;;;;;4103914;28;20059;-67
2022/08/03 04:24:22;;;;;;;3.25;1.40;;;33.00;98.30;;;;;;4092556;29;20043;-67
2022/08/03 04:26:32;;;;;;;2.88;1.70;;;32.90;98.40;;;;;;4096161;28;20049;-67
2022/08/03 04:28:38;;;;;;;1.77;1.38;;;32.70;98.90;;;;;;4093209;29;20063;-67
2022/08/03 04:30:49;;;;;;;2.15;1.30;;;32.60;98.60;;;;;;4091882;29;20158;-68
2022/08/03 04:32:57;;;;;;;2.50;1.77;;;32.60;99.00;;;;;;4092623;29;20048;-67
2022/08/03 04:35:03;;;;;;;2.15;1.52;;;32.50;98.70;;;;;;4094152;28;20059;-67
2022/08/03 04:37:11;;;;;;;5.35;2.28;;;32.30;98.70;;;;;;4125504;28;20046;-68
2022/08/03 04:39:25;;;;;;;5.07;4.28;;;32.10;98.20;;;;;;4126549;28;20046;-67
2022/08/03 04:41:30;;;;;;;2.47;1.77;;;32.10;98.40;;;;;;4126700;28;20397;-67
2022/08/03 04:43:59;;;;;;;2.97;1.90;;;32.10;98.20;;;;;;4093423;28;20079;-67
2022/08/03 04:46:03;;;;;;;3.38;1.63;;;32.40;98.40;;;;;;4090887;28;20147;-67
2022/08/03 04:48:08;;;;;;;4.43;1.40;;;32.70;98.30;;;;;;4105325;28;20498;-67
2022/08/03 04:50:15;;;;;;;1.65;1.20;;;33.00;98.10;;;;;;4107454;28;20085;-68
2022/08/03 04:52:39;;;;;;;3.80;1.20;;;33.10;98.20;;;;;;4109062;28;20099;-67
2022/08/03 04:54:45;;;;;;;2.63;1.50;;;33.30;97.40;;;;;;4107700;28;20047;-67
2022/08/03 04:56:55;;;;;;;4.75;1.50;;;33.40;97.50;;;;;;4107761;28;20097;-67
2022/08/03 04:58:59;;;;;;;1.48;1.00;;;33.60;97.20;;;;;;4106712;28;20055;-66
2022/08/03 05:01:05;;;;;;;3.25;1.40;;;33.60;97.20;;;;;;4107345;28;20046;-68
2022/08/03 05:03:11;;;;;;;2.50;1.30;;;33.70;97.30;;;;;;4107581;28;20055;-68
2022/08/03 05:05:27;;;;;;;2.25;1.30;;;33.60;97.40;;;;;;4092600;28;20090;-67
2022/08/03 05:07:51;;;;;;;2.85;1.30;;;33.50;97.20;;;;;;4108517;28;20051;-66
2022/08/03 05:10:00;;;;;;;1.70;1.25;;;33.40;97.50;;;;;;4077703;29;20087;-66
2022/08/03 05:12:06;;;;;;;4.18;1.20;;;33.40;97.80;;;;;;4091250;28;20051;-67
2022/08/03 05:14:15;;;;;;;2.08;1.15;;;33.40;98.00;;;;;;4092248;29;20051;-67
2022/08/03 05:16:32;;;;;;;3.08;1.40;;;33.30;98.00;;;;;;4091695;28;20138;-66
2022/08/03 05:18:37;;;;;;;2.80;1.40;;;33.20;98.10;;;;;;4096112;28;20077;-67
2022/08/03 05:20:42;;;;;;;3.45;1.40;;;33.20;98.00;;;;;;4094101;28;20055;-66
2022/08/03 05:22:50;;;;;;;2.05;1.45;;;33.00;97.80;;;;;;4114046;28;20401;-66
2022/08/03 05:24:55;;;;;;;2.97;1.48;;;33.00;98.00;;;;;;4113022;28;20050;-66
2022/08/03 05:26:59;;;;;;;1.92;1.30;;;33.00;98.10;;;;;;4111634;28;20506;-67
2022/08/03 05:29:06;;;;;;;1.77;1.40;;;32.90;98.00;;;;;;4114031;28;20085;-66
2022/08/03 05:31:12;;;;;;;2.22;1.30;;;33.00;98.30;;;;;;4128617;28;20105;-67
2022/08/03 05:33:18;;;;;;;2.35;1.50;;;32.90;98.20;;;;;;4130348;28;20066;-68
2022/08/03 05:35:27;;;;;;;3.05;1.17;;;33.00;98.20;;;;;;4109660;28;20462;-66
2022/08/03 05:37:52;;;;;;;1.95;1.33;;;33.10;98.30;;;;;;4129991;28;20050;-66
2022/08/03 05:39:57;;;;;;;3.70;1.20;;;33.00;98.20;;;;;;4128727;28;20074;-67
2022/08/03 05:42:05;;;;;;;2.28;1.45;;;33.10;98.30;;;;;;4110076;28;20564;-67
2022/08/03 05:44:10;;;;;;;1.23;1.10;;;33.40;98.00;;;;;;4129866;28;20053;-67
2022/08/03 05:46:14;;;;;;;1.73;1.40;;;33.60;97.60;;;;;;4127680;28;20049;-68
2022/08/03 05:48:24;;;;;;;4.45;1.45;;;33.70;97.60;;;;;;4129818;28;20075;-67
2022/08/03 05:50:28;;;;;;;3.13;1.58;;;33.60;97.80;;;;;;4128270;28;20081;-68
2022/08/03 05:52:33;;;;;;;1.70;1.40;;;33.40;98.00;;;;;;4128177;28;20089;-67
2022/08/03 05:54:40;;;;;;;3.58;1.73;;;33.30;98.00;;;;;;4110462;28;20051;-67
2022/08/03 05:57:00;;;;;;;2.30;1.30;;;33.30;98.10;;;;;;4128077;28;20816;-68
2022/08/03 05:59:04;;;;;;;1.90;1.17;;;33.20;97.90;;;;;;4128781;28;20066;-67
2022/08/03 06:01:32;;;;;;;2.28;1.15;;;33.10;98.10;;;;;;4109805;28;20175;-68
2022/08/03 06:03:36;;;;;;;3.92;1.80;;;33.10;98.40;;;;;;4111069;28;20042;-67
2022/08/03 06:05:41;;;;;;;1.85;1.25;;;33.10;98.40;;;;;;4108676;28;20075;-68
2022/08/03 06:08:03;;;;;;;2.58;1.40;;;33.20;98.40;;;;;;4111257;28;20042;-68
2022/08/03 06:10:08;;;;;;;2.10;1.42;;;33.20;98.10;;;;;;4108050;28;20083;-68
2022/08/03 06:12:36;;;;;;;3.40;1.50;;;33.20;98.20;;;;;;4081020;29;20810;-67
2022/08/03 06:14:45;;;;;;;2.20;1.35;;;33.10;98.20;;;;;;4094477;28;20132;-68
2022/08/03 06:16:49;;;;;;;2.00;1.27;;;33.20;98.20;;;;;;4093427;28;20077;-68
2022/08/03 06:18:54;;;;;;;3.53;1.70;;;33.20;97.90;;;;;;4096915;28;20155;-68
2022/08/03 06:21:01;;;;;;;3.08;1.30;;;33.30;97.80;;;;;;4093723;28;20053;-68
2022/08/03 06:23:18;;;;;;;2.33;1.50;;;33.30;97.70;;;;;;4095509;28;20650;-67
2022/08/03 06:25:24;;;;;;;2.58;1.65;;;33.20;97.80;;;;;;4077499;29;20068;-68
2022/08/03 06:27:33;;;;;;;3.03;1.60;;;33.10;98.20;;;;;;4093838;28;20362;-67
2022/08/03 06:29:40;;;;;;;1.90;1.40;;;33.10;98.40;;;;;;4092773;29;20157;-68
2022/08/03 06:31:44;;;;;;;2.50;1.58;;;33.10;98.50;;;;;;4093382;28;20062;-68
2022/08/03 06:33:53;;;;;;;1.67;1.30;;;33.10;98.60;;;;;;4112341;28;20097;-67
2022/08/03 06:36:17;;;;;;;3.90;1.58;;;33.00;98.40;;;;;;4117871;28;20735;-67
2022/08/03 06:38:22;;;;;;;3.08;1.60;;;33.00;98.40;;;;;;4129166;28;20058;-67
2022/08/03 06:40:30;;;;;;;3.28;1.98;;;32.90;98.60;;;;;;4127307;28;21031;-67
2022/08/03 06:42:34;;;;;;;4.45;2.60;;;32.90;98.70;;;;;;4130741;28;20093;-67
2022/08/03 06:44:40;;;;;;;3.78;2.70;;;32.90;98.60;;;;;;4136847;28;20046;-67
2022/08/03 06:46:49;;;;;;;4.93;3.10;;;33.00;98.70;;;;;;4132449;28;20069;-67
2022/08/03 06:48:55;;;;;;;4.97;3.78;;;33.20;98.50;;;;;;4144456;28;20111;-67
2022/08/03 06:51:00;;;;;;;5.53;3.58;;;33.50;98.60;;;;;;4137473;28;20045;-68
2022/08/03 06:53:11;;;;;;;5.43;3.70;;;33.50;98.40;;;;;;4128854;28;20054;-68
2022/08/03 06:55:24;;;;;;;6.05;3.45;;;33.40;98.50;;;;;;4126099;28;20172;-68
2022/08/03 06:57:28;;;;;;;4.97;3.10;;;33.20;98.70;;;;;;4128131;28;20583;-68
2022/08/03 06:59:37;;;;;;;5.22;2.95;;;33.10;98.90;;;;;;4108881;28;20117;-68
2022/08/03 07:02:02;;;;;;;3.33;2.47;;;33.10;99.00;;;;;;4127734;28;20042;-68
2022/08/03 07:04:08;;;;;;;4.03;1.67;;;33.00;99.10;;;;;;4128896;28;20397;-68
2022/08/03 07:06:17;;;;;;;5.05;2.05;;;33.20;98.90;;;;;;4126142;28;20722;-68
2022/08/03 07:08:23;;;;;;;1.98;1.30;;;33.50;98.50;;;;;;4128748;28;20515;-68
2022/08/03 07:10:37;;;;;;;4.38;1.35;;;33.90;97.70;;;;;;4126744;28;20038;-68
2022/08/03 07:12:44;;;;;;;3.35;1.40;;;34.10;97.30;;;;;;4127949;28;20046;-68
2022/08/03 07:14:59;;;;;;;4.45;1.52;;;33.80;97.90;;;;;;4127809;28;20519;-68
2022/08/03 07:17:05;;;;;;;1.83;1.23;;;33.60;97.80;;;;;;4137066;28;20049;-68
2022/08/03 07:19:14;;;;;;;2.20;1.30;;;33.60;97.60;;;;;;4142924;28;20038;-69
2022/08/03 07:21:19;;;;;;;2.35;1.38;;;33.60;97.30;;;;;;4142547;28;20050;-70
2022/08/03 07:23:24;;;;;;;4.75;1.83;;;33.50;97.90;;;;;;4144826;28;20057;-68
2022/08/03 07:25:33;;;;;;;5.47;1.88;;;33.60;97.80;;;;;;4142986;28;20526;-67
2022/08/03 07:27:38;;;;;;;3.22;2.47;;;33.60;97.60;;;;;;4143919;28;20070;-67
2022/08/03 07:29:43;;;;;;;2.50;2.30;;;34.00;97.40;;;;;;4152394;28;20050;-66
2022/08/03 07:31:52;;;;;;;5.45;1.50;;;34.30;97.30;;;;;;4125836;28;20534;-67
2022/08/03 07:33:59;;;;;;;6.78;2.00;;;34.40;97.10;;;;;;4127156;28;20046;-68
2022/08/03 07:36:04;;;;;;;2.80;1.45;;;34.30;97.40;;;;;;4124799;28;20104;-67
2022/08/03 07:38:12;;;;;;;6.03;2.53;;;34.10;97.70;;;;;;4126614;28;20520;-67
2022/08/03 07:40:17;;;;;;;3.35;1.80;;;34.20;97.70;;;;;;4124816;28;20701;-67
2022/08/03 07:42:23;;;;;;;2.40;1.60;;;34.10;97.80;;;;;;4125752;28;20113;-67
2022/08/03 07:44:31;;;;;;;4.00;1.40;;;34.10;97.70;;;;;;4126849;28;20577;-67
2022/08/03 07:46:36;;;;;;;2.70;1.42;;;34.20;97.40;;;;;;4124279;28;20817;-67
2022/08/03 07:48:41;;;;;;;1.55;1.45;;;34.40;96.80;;;;;;4126250;28;20073;-67
2022/08/03 07:50:45;;;;;;;3.05;1.52;;;34.40;96.40;;;;;;4131769;28;20141;-67
2022/08/03 07:52:54;;;;;;;2.55;1.52;;;34.50;96.00;;;;;;4129585;28;20484;-67
2022/08/03 07:54:59;;;;;;;4.47;1.50;;;34.50;96.00;;;;;;4125342;28;20052;-67
2022/08/03 07:57:06;;;;;;;1.85;1.50;;;34.40;95.80;;;;;;4124704;28;20050;-67
2022/08/03 07:59:11;;;;;;;3.25;1.38;;;34.30;96.40;;;;;;4125728;28;20062;-68
2022/08/03 08:01:15;;;;;;;3.13;1.50;;;34.20;96.60;;;;;;4125541;28;20047;-67
2022/08/03 08:03:25;;;;;;;2.88;1.20;;;34.00;96.10;;;;;;4102718;28;20682;-67
2022/08/03 08:05:49;;;;;;;2.22;1.33;;;33.70;96.10;;;;;;4114277;28;20141;-68
2022/08/03 08:07:54;;;;;;;4.03;1.52;;;33.50;96.30;;;;;;4127675;28;20109;-68
2022/08/03 08:10:02;;;;;;;3.47;1.33;;;33.30;97.10;;;;;;4126022;28;20050;-68
2022/08/03 08:12:08;;;;;;;3.05;1.55;;;32.80;98.20;;;;;;4126166;28;20066;-68
2022/08/03 08:14:18;;;;;;;3.03;1.52;;;32.70;98.40;;;;;;4112238;28;20051;-70
2022/08/03 08:16:26;;;;;;;5.00;2.00;;;32.60;98.50;;;;;;4109122;28;20057;-68
2022/08/03 08:18:31;;;;;;;3.22;1.80;;;32.80;98.20;;;;;;4111001;28;20046;-68
2022/08/03 08:20:39;;;;;;;2.53;1.38;;;32.90;98.20;;;;;;4123425;28;20854;-67
2022/08/03 08:22:49;;;;;;;3.33;1.80;;;32.90;97.90;;;;;;4115205;28;20038;-69
2022/08/03 08:24:54;;;;;;;5.75;2.40;;;32.90;98.20;;;;;;4127128;28;20046;-68
2022/08/03 08:27:00;;;;;;;3.35;1.90;;;33.00;98.10;;;;;;4119514;28;20058;-68
2022/08/03 08:29:06;;;;;;;6.55;2.15;;;32.90;97.90;;;;;;4110944;28;20070;-68
2022/08/03 08:31:11;;;;;;;4.32;2.15;;;32.90;97.70;;;;;;4110147;28;20042;-69
2022/08/03 08:33:16;;;;;;;5.07;2.22;;;33.00;97.70;;;;;;4116566;28;20101;-66
2022/08/03 08:35:29;;;;;;;4.07;2.50;;;33.10;97.50;;;;;;4126224;28;20129;-68
2022/08/03 08:37:34;;;;;;;4.35;2.50;;;33.00;97.30;;;;;;4126848;28;20125;-68
2022/08/03 08:39:39;;;;;;;4.63;1.92;;;33.00;96.60;;;;;;4126242;28;20129;-68
2022/08/03 08:41:51;;;;;;;5.05;2.25;;;32.70;97.20;;;;;;4106988;28;20050;-70
2022/08/03 08:43:58;;;;;;;3.28;1.80;;;32.90;97.30;;;;;;4155609;28;20053;-69
2022/08/03 08:46:06;;;;;;;2.67;1.80;;;33.00;96.90;;;;;;4125206;28;20502;-69
2022/08/03 08:48:15;;;;;;;3.42;1.80;;;33.20;96.90;;;;;;4127751;28;20038;-73
2022/08/03 08:50:20;;;;;;;3.22;1.77;;;33.00;97.50;;;;;;4128033;28;20046;-70
2022/08/03 08:52:30;;;;;;;2.85;1.58;;;32.80;97.40;;;;;;4145259;28;20072;-69
2022/08/03 08:54:37;;;;;;;5.03;1.60;;;32.90;97.20;;;;;;4141417;28;20047;-71
2022/08/03 08:56:44;;;;;;;3.83;1.90;;;33.00;96.90;;;;;;4128282;28;20424;-73
2022/08/03 08:58:55;;;;;;;3.22;1.70;;;33.00;97.60;;;;;;4130322;28;20054;-73
2022/08/03 09:01:04;;;;;;;4.03;1.90;;;33.00;97.50;;;;;;4127995;28;20145;-72
2022/08/03 09:03:09;;;;;;;4.80;1.85;;;32.90;98.00;;;;;;4129423;28;20052;-72
2022/08/03 09:05:24;;;;;;;2.88;1.52;;;32.80;98.40;;;;;;4129250;28;20088;-71
2022/08/03 09:07:53;;;;;;;2.55;1.60;;;32.50;99.10;;;;;;4094336;28;20062;-72
2022/08/03 09:09:57;;;;;;;3.83;1.50;;;32.50;99.40;;;;;;4094440;28;20059;-72
2022/08/03 09:12:15;;;;;;;4.43;1.67;;;32.60;99.40;;;;;;4110090;28;20065;-73
2022/08/03 09:14:44;;;;;;;4.97;1.80;;;32.60;99.10;;;;;;4095588;29;20051;-73
2022/08/03 09:17:09;;;;;;;3.35;2.08;;;32.70;99.20;;;;;;4077871;29;20060;-73
2022/08/03 09:19:19;;;;;;;4.40;1.98;;;32.70;99.70;;;;;;4079190;29;20063;-72
2022/08/03 09:21:28;;;;;;;18.05;2.55;;;32.70;99.80;;;;;;4077824;29;20055;-72
2022/08/03 09:23:51;;;;;;;9.07;2.00;;;32.70;99.90;;;;;;4080581;29;20046;-73
2022/08/03 09:26:06;;;;;;;5.82;2.30;;;32.70;99.60;;;;;;4084405;29;20063;-72
2022/08/03 09:28:14;;;;;;;3.28;1.80;;;32.70;99.40;;;;;;4079869;29;20047;-72
2022/08/03 09:30:57;;;;;;;5.18;2.30;;;32.60;99.20;;;;;;4080286;29;20580;-72
2022/08/03 09:33:23;;;;;;;3.10;1.55;;;32.70;99.00;;;;;;4096032;28;20055;-70
2022/08/03 09:35:45;;;;;;;6.50;1.70;;;32.70;98.60;;;;;;4092348;29;20047;-68
2022/08/03 09:38:24;;;;;;;2.53;1.80;;;32.70;98.80;;;;;;4080332;29;20079;-73
2022/08/03 09:40:35;;;;;;;2.08;1.50;;;32.80;98.90;;;;;;4077598;29;20154;-72
2022/08/03 09:42:55;;;;;;;2.50;1.35;;;32.80;99.10;;;;;;4079137;29;20067;-73
2022/08/03 09:45:00;;;;;;;2.33;1.50;;;32.80;98.50;;;;;;4086340;28;20473;-74
2022/08/03 09:47:05;;;;;;;5.07;1.80;;;32.70;98.10;;;;;;4117104;28;20096;-74
2022/08/03 09:49:12;;;;;;;4.38;1.77;;;32.60;98.20;;;;;;4133649;28;20310;-73
2022/08/03 09:51:19;;;;;;;3.33;1.70;;;32.60;98.20;;;;;;4130768;28;20041;-75
2022/08/03 09:53:45;;;;;;;5.05;1.75;;;32.60;98.40;;;;;;4124921;28;20065;-74
2022/08/03 09:56:02;;;;;;;3.38;1.80;;;32.60;98.70;;;;;;4132951;28;20054;-73
2022/08/03 09:58:29;;;;;;;3.13;1.27;;;32.60;98.60;;;;;;4128938;28;20040;-74
2022/08/03 10:00:48;;;;;;;3.15;1.63;;;32.40;97.90;;;;;;4132280;28;20061;-70
2022/08/03 10:03:03;;;;;;;4.07;1.30;;;32.30;97.20;;;;;;4134717;28;20053;-72
2022/08/03 10:05:11;;;;;;;3.17;1.63;;;32.20;97.60;;;;;;4135396;28;20047;-73
2022/08/03 10:07:24;;;;;;;3.53;1.35;;;32.10;97.40;;;;;;4135946;28;20035;-73
2022/08/03 10:09:31;;;;;;;2.00;1.35;;;31.80;96.80;;;;;;4137273;28;20083;-75
2022/08/03 10:11:36;;;;;;;3.85;1.48;;;31.80;97.00;;;;;;4131056;28;20054;-73
2022/08/03 10:13:46;;;;;;;2.15;1.27;;;31.60;97.30;;;;;;4140027;28;20053;-73
2022/08/03 10:16:03;;;;;;;4.18;1.90;;;31.50;97.20;;;;;;4134708;28;20045;-73
2022/08/03 10:18:27;;;;;;;3.33;2.10;;;31.50;97.00;;;;;;4135397;28;20048;-74
2022/08/03 10:20:35;;;;;;;3.92;2.33;;;31.50;96.70;;;;;;4137400;28;20592;-73
2022/08/03 10:22:40;;;;;;;6.05;2.55;;;31.50;97.00;;;;;;4138802;28;20081;-74
2022/08/03 10:24:52;;;;;;;7.78;2.67;;;31.50;97.90;;;;;;4130971;28;20038;-72
2022/08/03 10:27:01;;;;;;;;;;;31.40;98.70;;;;;;4132082;28;20129;-73
2022/08/03 10:29:12;;;;;;;9.70;3.40;;;30.80;99.90;;;;;;4132454;28;19999;-73
2022/08/03 10:31:16;;;;;;;13.48;5.75;;;30.50;99.90;;;;;;4135111;28;20058;-69
2022/08/03 10:33:25;;;;;;;14.88;3.63;;;30.10;99.90;;;;;;4128043;28;20069;-72
2022/08/03 10:35:57;;;;;;;5.82;1.88;;;29.80;99.90;;;;;;4094627;28;20178;-69
2022/08/03 10:38:05;;;;;;;6.35;1.92;;;29.40;99.90;;;;;;4099401;28;20051;-70
2022/08/03 10:40:14;;;;;;;5.50;1.92;;;29.30;99.90;;;;;;4093913;28;20050;-70
2022/08/03 10:42:39;;;;;;;4.25;1.70;;;29.00;99.90;;;;;;4083813;28;20126;-70
2022/08/03 10:44:44;;;;;;;4.82;2.13;;;28.90;99.90;;;;;;4096139;28;20067;-69
2022/08/03 10:46:50;;;;;;;6.97;1.95;;;29.10;99.90;;;;;;4093298;28;20110;-70
2022/08/03 10:48:57;;;;;;;9.05;4.30;;;29.10;99.90;;;;;;4102908;28;20477;-69
2022/08/03 10:51:02;;;;;;;5.68;1.60;;;29.00;99.90;;;;;;4102020;28;20058;-70
2022/08/03 10:53:09;;;;;;;7.50;1.15;;;28.30;99.90;;;;;;4109769;28;20606;-69
2022/08/03 10:57:57;;;;;;;3.17;1.00;;;26.70;99.90;;;;;;4093677;28;19970;-71
2022/08/03 11:00:04;;;;;;;2.75;0.80;;;27.00;99.90;;;;;;4091629;28;20138;-72
2022/08/03 11:02:12;;;;;;;1.52;0.63;;;27.40;99.90;;;;;;4092020;28;20043;-71
2022/08/03 11:04:18;;;;;;;12.65;1.60;;;27.90;99.90;;;;;;4110523;28;20050;-71
2022/08/03 11:06:25;;;;;;;5.13;1.73;;;28.40;99.90;;;;;;4078103;29;20116;-69
2022/08/03 11:08:40;;;;;;;5.50;1.60;;;28.60;99.90;;;;;;4094769;28;20043;-69
2022/08/03 11:10:44;;;;;;;6.63;1.83;;;28.70;99.90;;;;;;4091997;28;20047;-68
2022/08/03 11:12:51;;;;;;;6.50;2.30;;;28.60;99.90;;;;;;4109044;28;20063;-69
2022/08/03 11:15:08;;;;;;;4.50;1.83;;;28.70;99.90;;;;;;4126932;28;20070;-69
2022/08/03 11:17:12;;;;;;;4.80;1.23;;;28.80;99.90;;;;;;4111022;28;20118;-70
2022/08/03 11:19:26;;;;;;;6.03;1.60;;;28.90;99.90;;;;;;4129637;28;20046;-69
2022/08/03 11:21:53;;;;;;;4.65;1.48;;;29.10;99.90;;;;;;4127552;28;20413;-69
2022/08/03 11:23:58;;;;;;;5.57;1.40;;;28.90;99.90;;;;;;4127586;28;20066;-69
2022/08/03 11:26:16;;;;;;;6.38;1.25;;;28.90;99.90;;;;;;4126678;28;20045;-69